sensor_id;sensor_type;location;lat;lon;timestamp;temperature;humidity
26821;DHT22;37186;51.394;5.454;2022-07-10T00:01:21;19.90;56.90
26821;DHT22;37186;51.394;5.454;2022-07-10T00:04:21;19.80;56.90
26821;DHT22;37186;51.394;5.454;2022-07-10T00:07:22;19.80;57.00
26821;DHT22;37186;51.394;5.454;2022-07-10T00:10:23;19.80;57.10
26821;DHT22;37186;51.394;5.454;2022-07-10T00:13:24;19.70;57.10
26821;DHT22;37186;51.394;5.454;2022-07-10T00:16:24;19.70;57.40
26821;DHT22;37186;51.394;5.454;2022-07-10T00:19:25;19.70;57.30
26821;DHT22;37186;51.394;5.454;2022-07-10T00:22:25;19.70;57.40
26821;DHT22;37186;51.394;5.454;2022-07-10T00:25:26;19.60;57.40
26821;DHT22;37186;51.394;5.454;2022-07-10T00:28:27;19.60;57.40
26821;DHT22;37186;51.394;5.454;2022-07-10T00:31:27;19.60;57.40
26821;DHT22;37186;51.394;5.454;2022-07-10T00:34:28;19.60;57.40
26821;DHT22;37186;51.394;5.454;2022-07-10T00:37:28;19.50;57.40
26821;DHT22;37186;51.394;5.454;2022-07-10T00:40:29;19.50;57.50
26821;DHT22;37186;51.394;5.454;2022-07-10T00:43:30;19.40;57.50
26821;DHT22;37186;51.394;5.454;2022-07-10T00:46:31;19.40;57.50
26821;DHT22;37186;51.394;5.454;2022-07-10T00:49:33;19.40;57.60
26821;DHT22;37186;51.394;5.454;2022-07-10T00:52:36;19.40;57.50
26821;DHT22;37186;51.394;5.454;2022-07-10T00:55:39;19.30;57.40
26821;DHT22;37186;51.394;5.454;2022-07-10T00:58:40;19.30;57.50
26821;DHT22;37186;51.394;5.454;2022-07-10T01:01:41;19.20;57.60
26821;DHT22;37186;51.394;5.454;2022-07-10T01:04:42;19.20;57.70
26821;DHT22;37186;51.394;5.454;2022-07-10T01:07:42;19.20;57.80
26821;DHT22;37186;51.394;5.454;2022-07-10T01:10:43;19.10;57.70
26821;DHT22;37186;51.394;5.454;2022-07-10T01:13:44;19.10;57.80
26821;DHT22;37186;51.394;5.454;2022-07-10T01:16:44;19.00;57.70
26821;DHT22;37186;51.394;5.454;2022-07-10T01:19:45;19.00;57.90
26821;DHT22;37186;51.394;5.454;2022-07-10T01:22:46;19.00;57.90
26821;DHT22;37186;51.394;5.454;2022-07-10T01:25:46;19.00;58.00
26821;DHT22;37186;51.394;5.454;2022-07-10T01:28:51;19.00;57.90
26821;DHT22;37186;51.394;5.454;2022-07-10T01:31:52;18.90;57.90
26821;DHT22;37186;51.394;5.454;2022-07-10T01:34:52;18.90;58.00
26821;DHT22;37186;51.394;5.454;2022-07-10T01:37:53;18.90;58.00
26821;DHT22;37186;51.394;5.454;2022-07-10T01:40:55;18.80;58.00
26821;DHT22;37186;51.394;5.454;2022-07-10T01:43:55;18.80;58.20
26821;DHT22;37186;51.394;5.454;2022-07-10T01:46:56;18.80;58.10
26821;DHT22;37186;51.394;5.454;2022-07-10T01:49:56;18.70;58.00
26821;DHT22;37186;51.394;5.454;2022-07-10T01:52:57;18.70;58.10
26821;DHT22;37186;51.394;5.454;2022-07-10T01:55:58;18.70;58.20
26821;DHT22;37186;51.394;5.454;2022-07-10T01:59:00;18.60;58.20
26821;DHT22;37186;51.394;5.454;2022-07-10T02:02:03;18.60;58.30
26821;DHT22;37186;51.394;5.454;2022-07-10T02:05:04;18.60;58.40
26821;DHT22;37186;51.394;5.454;2022-07-10T02:08:05;18.60;58.30
26821;DHT22;37186;51.394;5.454;2022-07-10T02:11:06;18.60;58.30
26821;DHT22;37186;51.394;5.454;2022-07-10T02:14:07;18.50;58.40
26821;DHT22;37186;51.394;5.454;2022-07-10T02:17:08;18.50;58.40
26821;DHT22;37186;51.394;5.454;2022-07-10T02:20:09;18.40;58.60
26821;DHT22;37186;51.394;5.454;2022-07-10T02:23:11;18.50;58.40
26821;DHT22;37186;51.394;5.454;2022-07-10T02:26:11;18.40;58.40
26821;DHT22;37186;51.394;5.454;2022-07-10T02:29:12;18.40;58.50
26821;DHT22;37186;51.394;5.454;2022-07-10T02:32:12;18.40;58.50
26821;DHT22;37186;51.394;5.454;2022-07-10T02:35:13;18.30;58.50
26821;DHT22;37186;51.394;5.454;2022-07-10T02:38:13;18.30;58.70
26821;DHT22;37186;51.394;5.454;2022-07-10T02:41:14;18.30;58.90
26821;DHT22;37186;51.394;5.454;2022-07-10T02:44:14;18.30;58.70
26821;DHT22;37186;51.394;5.454;2022-07-10T02:47:15;18.20;58.50
26821;DHT22;37186;51.394;5.454;2022-07-10T02:50:15;18.20;58.70
26821;DHT22;37186;51.394;5.454;2022-07-10T02:53:16;18.20;58.70
26821;DHT22;37186;51.394;5.454;2022-07-10T02:56:16;18.10;58.60
26821;DHT22;37186;51.394;5.454;2022-07-10T02:59:17;18.10;59.00
26821;DHT22;37186;51.394;5.454;2022-07-10T03:02:18;18.10;58.80
26821;DHT22;37186;51.394;5.454;2022-07-10T03:05:19;18.00;58.80
26821;DHT22;37186;51.394;5.454;2022-07-10T03:08:20;18.00;58.80
26821;DHT22;37186;51.394;5.454;2022-07-10T03:11:20;18.00;58.80
26821;DHT22;37186;51.394;5.454;2022-07-10T03:14:20;17.90;58.90
26821;DHT22;37186;51.394;5.454;2022-07-10T03:17:21;17.90;58.80
26821;DHT22;37186;51.394;5.454;2022-07-10T03:20:21;17.90;58.80
26821;DHT22;37186;51.394;5.454;2022-07-10T03:23:22;17.80;58.90
26821;DHT22;37186;51.394;5.454;2022-07-10T03:26:23;17.80;59.00
26821;DHT22;37186;51.394;5.454;2022-07-10T03:29:23;17.80;59.00
26821;DHT22;37186;51.394;5.454;2022-07-10T03:32:24;17.80;59.90
26821;DHT22;37186;51.394;5.454;2022-07-10T03:35:24;17.80;59.10
26821;DHT22;37186;51.394;5.454;2022-07-10T03:38:26;17.80;59.10
26821;DHT22;37186;51.394;5.454;2022-07-10T03:41:26;17.80;59.20
26821;DHT22;37186;51.394;5.454;2022-07-10T03:44:27;17.80;59.10
26821;DHT22;37186;51.394;5.454;2022-07-10T03:47:27;17.80;59.10
26821;DHT22;37186;51.394;5.454;2022-07-10T03:50:28;17.80;59.10
26821;DHT22;37186;51.394;5.454;2022-07-10T03:53:28;17.70;59.40
26821;DHT22;37186;51.394;5.454;2022-07-10T03:56:29;17.70;59.00
26821;DHT22;37186;51.394;5.454;2022-07-10T03:59:48;17.80;59.20
26821;DHT22;37186;51.394;5.454;2022-07-10T04:02:57;17.80;59.40
26821;DHT22;37186;51.394;5.454;2022-07-10T04:05:58;17.70;59.20
26821;DHT22;37186;51.394;5.454;2022-07-10T04:08:58;17.70;59.40
26821;DHT22;37186;51.394;5.454;2022-07-10T04:11:58;17.70;59.30
26821;DHT22;37186;51.394;5.454;2022-07-10T04:14:59;17.70;59.20
26821;DHT22;37186;51.394;5.454;2022-07-10T04:18:00;17.70;59.30
26821;DHT22;37186;51.394;5.454;2022-07-10T04:21:00;17.70;59.30
26821;DHT22;37186;51.394;5.454;2022-07-10T04:24:02;17.70;59.30
26821;DHT22;37186;51.394;5.454;2022-07-10T04:27:03;17.70;59.40
26821;DHT22;37186;51.394;5.454;2022-07-10T04:30:04;17.70;59.50
26821;DHT22;37186;51.394;5.454;2022-07-10T04:33:05;17.70;59.30
26821;DHT22;37186;51.394;5.454;2022-07-10T04:36:06;17.70;59.30
26821;DHT22;37186;51.394;5.454;2022-07-10T04:39:06;17.70;59.30
26821;DHT22;37186;51.394;5.454;2022-07-10T04:42:07;17.70;59.60
26821;DHT22;37186;51.394;5.454;2022-07-10T04:45:09;17.70;59.80
26821;DHT22;37186;51.394;5.454;2022-07-10T04:48:09;17.70;59.50
26821;DHT22;37186;51.394;5.454;2022-07-10T04:51:10;17.60;59.50
26821;DHT22;37186;51.394;5.454;2022-07-10T04:54:10;17.60;59.80
26821;DHT22;37186;51.394;5.454;2022-07-10T04:57:11;17.60;59.70
26821;DHT22;37186;51.394;5.454;2022-07-10T05:00:12;17.60;59.60
26821;DHT22;37186;51.394;5.454;2022-07-10T05:03:12;17.60;59.50
26821;DHT22;37186;51.394;5.454;2022-07-10T05:06:16;17.60;59.60
26821;DHT22;37186;51.394;5.454;2022-07-10T05:09:16;17.60;59.80
26821;DHT22;37186;51.394;5.454;2022-07-10T05:12:20;17.60;60.00
26821;DHT22;37186;51.394;5.454;2022-07-10T05:15:20;17.60;60.00
26821;DHT22;37186;51.394;5.454;2022-07-10T05:18:21;17.60;60.10
26821;DHT22;37186;51.394;5.454;2022-07-10T05:21:21;17.60;59.60
26821;DHT22;37186;51.394;5.454;2022-07-10T05:24:22;17.60;59.70
26821;DHT22;37186;51.394;5.454;2022-07-10T05:27:23;17.60;60.00
26821;DHT22;37186;51.394;5.454;2022-07-10T05:30:23;17.60;59.60
26821;DHT22;37186;51.394;5.454;2022-07-10T05:33:24;17.60;59.80
26821;DHT22;37186;51.394;5.454;2022-07-10T05:36:26;17.60;60.10
26821;DHT22;37186;51.394;5.454;2022-07-10T05:39:27;17.60;59.90
26821;DHT22;37186;51.394;5.454;2022-07-10T05:42:28;17.60;60.40
26821;DHT22;37186;51.394;5.454;2022-07-10T05:45:28;17.70;60.00
26821;DHT22;37186;51.394;5.454;2022-07-10T05:48:29;17.60;60.00
26821;DHT22;37186;51.394;5.454;2022-07-10T05:51:30;17.60;60.10
26821;DHT22;37186;51.394;5.454;2022-07-10T05:54:30;17.70;60.30
26821;DHT22;37186;51.394;5.454;2022-07-10T05:57:31;17.60;60.30
26821;DHT22;37186;51.394;5.454;2022-07-10T06:00:32;17.70;60.30
26821;DHT22;37186;51.394;5.454;2022-07-10T06:03:32;17.70;60.00
26821;DHT22;37186;51.394;5.454;2022-07-10T06:06:33;17.70;60.00
26821;DHT22;37186;51.394;5.454;2022-07-10T06:09:33;17.70;60.10
26821;DHT22;37186;51.394;5.454;2022-07-10T06:12:34;17.70;60.50
26821;DHT22;37186;51.394;5.454;2022-07-10T06:15:35;17.80;60.20
26821;DHT22;37186;51.394;5.454;2022-07-10T06:18:35;17.80;60.00
26821;DHT22;37186;51.394;5.454;2022-07-10T06:21:36;17.80;60.60
26821;DHT22;37186;51.394;5.454;2022-07-10T06:24:36;17.80;60.80
26821;DHT22;37186;51.394;5.454;2022-07-10T06:27:37;17.80;61.20
26821;DHT22;37186;51.394;5.454;2022-07-10T06:30:38;17.90;60.50
26821;DHT22;37186;51.394;5.454;2022-07-10T06:33:38;17.90;61.50
26821;DHT22;37186;51.394;5.454;2022-07-10T06:36:39;17.90;60.80
26821;DHT22;37186;51.394;5.454;2022-07-10T06:39:39;17.90;60.80
26821;DHT22;37186;51.394;5.454;2022-07-10T06:42:40;18.00;61.30
26821;DHT22;37186;51.394;5.454;2022-07-10T06:45:41;18.00;60.80
26821;DHT22;37186;51.394;5.454;2022-07-10T06:48:41;18.00;60.60
26821;DHT22;37186;51.394;5.454;2022-07-10T06:51:42;18.10;61.00
26821;DHT22;37186;51.394;5.454;2022-07-10T06:54:43;18.10;60.80
26821;DHT22;37186;51.394;5.454;2022-07-10T06:57:43;18.10;60.70
26821;DHT22;37186;51.394;5.454;2022-07-10T07:00:44;18.10;60.70
26821;DHT22;37186;51.394;5.454;2022-07-10T07:03:44;18.10;60.80
26821;DHT22;37186;51.394;5.454;2022-07-10T07:06:45;18.10;61.20
26821;DHT22;37186;51.394;5.454;2022-07-10T07:09:45;18.20;61.30
26821;DHT22;37186;51.394;5.454;2022-07-10T07:12:49;18.20;61.70
26821;DHT22;37186;51.394;5.454;2022-07-10T07:15:50;18.30;61.70
26821;DHT22;37186;51.394;5.454;2022-07-10T07:18:59;18.30;61.60
26821;DHT22;37186;51.394;5.454;2022-07-10T07:22:00;18.40;61.60
26821;DHT22;37186;51.394;5.454;2022-07-10T07:25:19;18.40;62.00
26821;DHT22;37186;51.394;5.454;2022-07-10T07:28:19;18.40;61.70
26821;DHT22;37186;51.394;5.454;2022-07-10T07:31:20;18.50;61.60
26821;DHT22;37186;51.394;5.454;2022-07-10T07:34:21;18.50;61.50
26821;DHT22;37186;51.394;5.454;2022-07-10T07:37:21;18.60;61.70
26821;DHT22;37186;51.394;5.454;2022-07-10T07:40:22;18.60;61.50
26821;DHT22;37186;51.394;5.454;2022-07-10T07:43:23;18.70;61.70
26821;DHT22;37186;51.394;5.454;2022-07-10T07:46:24;18.70;61.60
26821;DHT22;37186;51.394;5.454;2022-07-10T07:49:24;18.80;61.60
26821;DHT22;37186;51.394;5.454;2022-07-10T07:52:25;18.80;61.50
26821;DHT22;37186;51.394;5.454;2022-07-10T07:55:26;18.80;61.60
26821;DHT22;37186;51.394;5.454;2022-07-10T07:58:27;18.90;61.50
26821;DHT22;37186;51.394;5.454;2022-07-10T08:01:27;18.90;61.50
26821;DHT22;37186;51.394;5.454;2022-07-10T08:04:28;19.00;61.40
26821;DHT22;37186;51.394;5.454;2022-07-10T08:07:43;19.00;61.70
26821;DHT22;37186;51.394;5.454;2022-07-10T08:10:43;19.00;61.80
26821;DHT22;37186;51.394;5.454;2022-07-10T08:13:44;19.10;61.60
26821;DHT22;37186;51.394;5.454;2022-07-10T08:16:44;19.10;61.60
26821;DHT22;37186;51.394;5.454;2022-07-10T08:19:45;19.10;62.00
26821;DHT22;37186;51.394;5.454;2022-07-10T08:22:45;19.10;62.60
26821;DHT22;37186;51.394;5.454;2022-07-10T08:25:47;19.20;62.20
26821;DHT22;37186;51.394;5.454;2022-07-10T08:28:47;19.20;62.10
26821;DHT22;37186;51.394;5.454;2022-07-10T08:31:48;19.20;62.10
26821;DHT22;37186;51.394;5.454;2022-07-10T08:34:48;19.20;62.00
26821;DHT22;37186;51.394;5.454;2022-07-10T08:37:49;19.20;62.50
26821;DHT22;37186;51.394;5.454;2022-07-10T08:40:49;19.20;61.90
26821;DHT22;37186;51.394;5.454;2022-07-10T08:43:51;19.20;62.20
26821;DHT22;37186;51.394;5.454;2022-07-10T08:46:51;19.30;62.00
26821;DHT22;37186;51.394;5.454;2022-07-10T08:49:52;19.30;62.50
26821;DHT22;37186;51.394;5.454;2022-07-10T08:56:01;19.40;62.10
26821;DHT22;37186;51.394;5.454;2022-07-10T08:59:05;19.40;62.20
26821;DHT22;37186;51.394;5.454;2022-07-10T09:02:07;19.40;62.00
26821;DHT22;37186;51.394;5.454;2022-07-10T09:05:08;19.40;62.80
26821;DHT22;37186;51.394;5.454;2022-07-10T09:08:23;19.40;62.50
26821;DHT22;37186;51.394;5.454;2022-07-10T09:11:24;19.40;62.50
26821;DHT22;37186;51.394;5.454;2022-07-10T09:14:26;19.50;62.30
26821;DHT22;37186;51.394;5.454;2022-07-10T09:17:28;19.40;62.40
26821;DHT22;37186;51.394;5.454;2022-07-10T09:20:33;19.50;62.20
26821;DHT22;37186;51.394;5.454;2022-07-10T09:23:34;19.50;62.40
26821;DHT22;37186;51.394;5.454;2022-07-10T09:26:39;19.50;62.50
26821;DHT22;37186;51.394;5.454;2022-07-10T09:29:50;19.50;62.30
26821;DHT22;37186;51.394;5.454;2022-07-10T09:36:18;19.50;62.10
26821;DHT22;37186;51.394;5.454;2022-07-10T09:39:19;19.60;62.10
26821;DHT22;37186;51.394;5.454;2022-07-10T09:42:31;19.60;62.30
26821;DHT22;37186;51.394;5.454;2022-07-10T09:45:33;19.60;62.30
26821;DHT22;37186;51.394;5.454;2022-07-10T09:48:33;19.60;62.20
26821;DHT22;37186;51.394;5.454;2022-07-10T09:51:40;19.70;62.20
26821;DHT22;37186;51.394;5.454;2022-07-10T09:54:41;19.70;62.30
26821;DHT22;37186;51.394;5.454;2022-07-10T09:57:43;19.80;62.40
26821;DHT22;37186;51.394;5.454;2022-07-10T10:00:46;19.80;62.50
26821;DHT22;37186;51.394;5.454;2022-07-10T10:03:47;19.80;62.60
26821;DHT22;37186;51.394;5.454;2022-07-10T10:06:53;19.90;62.40
26821;DHT22;37186;51.394;5.454;2022-07-10T10:09:58;19.90;62.30
26821;DHT22;37186;51.394;5.454;2022-07-10T10:13:03;20.00;62.30
26821;DHT22;37186;51.394;5.454;2022-07-10T10:16:04;20.00;62.20
26821;DHT22;37186;51.394;5.454;2022-07-10T10:19:08;20.00;62.30
26821;DHT22;37186;51.394;5.454;2022-07-10T10:22:27;20.00;62.40
26821;DHT22;37186;51.394;5.454;2022-07-10T10:25:32;20.10;62.80
26821;DHT22;37186;51.394;5.454;2022-07-10T10:28:33;20.10;62.50
26821;DHT22;37186;51.394;5.454;2022-07-10T10:31:35;20.10;62.40
26821;DHT22;37186;51.394;5.454;2022-07-10T10:34:42;20.10;62.20
26821;DHT22;37186;51.394;5.454;2022-07-10T10:37:42;20.10;62.30
26821;DHT22;37186;51.394;5.454;2022-07-10T10:40:45;20.20;62.20
26821;DHT22;37186;51.394;5.454;2022-07-10T10:47:09;20.20;62.20
26821;DHT22;37186;51.394;5.454;2022-07-10T10:50:10;20.20;62.50
26821;DHT22;37186;51.394;5.454;2022-07-10T10:53:20;20.30;62.40
26821;DHT22;37186;51.394;5.454;2022-07-10T10:56:23;20.30;62.40
26821;DHT22;37186;51.394;5.454;2022-07-10T11:03:12;20.40;62.60
26821;DHT22;37186;51.394;5.454;2022-07-10T11:06:14;20.40;62.60
26821;DHT22;37186;51.394;5.454;2022-07-10T11:09:31;20.50;62.60
26821;DHT22;37186;51.394;5.454;2022-07-10T11:13:11;20.50;62.70
26821;DHT22;37186;51.394;5.454;2022-07-10T11:16:12;20.50;62.70
26821;DHT22;37186;51.394;5.454;2022-07-10T11:19:13;20.50;62.60
26821;DHT22;37186;51.394;5.454;2022-07-10T11:22:43;20.60;62.70
26821;DHT22;37186;51.394;5.454;2022-07-10T11:25:52;20.70;62.70
26821;DHT22;37186;51.394;5.454;2022-07-10T11:29:05;20.70;62.70
26821;DHT22;37186;51.394;5.454;2022-07-10T11:32:06;20.70;63.60
26821;DHT22;37186;51.394;5.454;2022-07-10T11:35:12;20.80;62.70
26821;DHT22;37186;51.394;5.454;2022-07-10T11:38:17;20.80;62.80
26821;DHT22;37186;51.394;5.454;2022-07-10T11:41:19;20.90;62.70
26821;DHT22;37186;51.394;5.454;2022-07-10T11:44:21;21.00;62.70
26821;DHT22;37186;51.394;5.454;2022-07-10T11:47:22;21.00;62.70
26821;DHT22;37186;51.394;5.454;2022-07-10T11:50:22;21.00;62.60
26821;DHT22;37186;51.394;5.454;2022-07-10T11:53:24;21.10;62.70
26821;DHT22;37186;51.394;5.454;2022-07-10T11:56:30;21.10;62.80
26821;DHT22;37186;51.394;5.454;2022-07-10T11:59:33;21.20;62.50
26821;DHT22;37186;51.394;5.454;2022-07-10T12:02:33;21.20;62.50
26821;DHT22;37186;51.394;5.454;2022-07-10T12:05:38;21.20;62.60
26821;DHT22;37186;51.394;5.454;2022-07-10T12:08:45;21.20;62.50
26821;DHT22;37186;51.394;5.454;2022-07-10T12:12:05;21.30;62.50
26821;DHT22;37186;51.394;5.454;2022-07-10T12:15:07;21.40;62.70
26821;DHT22;37186;51.394;5.454;2022-07-10T12:18:11;21.40;62.70
26821;DHT22;37186;51.394;5.454;2022-07-10T12:21:15;21.40;62.60
26821;DHT22;37186;51.394;5.454;2022-07-10T12:24:17;21.50;62.60
26821;DHT22;37186;51.394;5.454;2022-07-10T12:27:39;21.50;62.80
26821;DHT22;37186;51.394;5.454;2022-07-10T12:30:44;21.60;62.70
26821;DHT22;37186;51.394;5.454;2022-07-10T12:33:50;21.60;62.70
26821;DHT22;37186;51.394;5.454;2022-07-10T12:36:53;21.70;62.90
26821;DHT22;37186;51.394;5.454;2022-07-10T12:39:53;21.70;62.80
26821;DHT22;37186;51.394;5.454;2022-07-10T12:43:01;21.80;62.60
26821;DHT22;37186;51.394;5.454;2022-07-10T12:46:16;21.80;62.60
26821;DHT22;37186;51.394;5.454;2022-07-10T12:49:17;21.90;62.50
26821;DHT22;37186;51.394;5.454;2022-07-10T12:52:25;21.90;62.40
26821;DHT22;37186;51.394;5.454;2022-07-10T12:55:35;21.90;62.30
26821;DHT22;37186;51.394;5.454;2022-07-10T12:58:36;21.90;62.50
26821;DHT22;37186;51.394;5.454;2022-07-10T13:01:41;22.00;62.50
26821;DHT22;37186;51.394;5.454;2022-07-10T13:04:52;22.00;62.50
26821;DHT22;37186;51.394;5.454;2022-07-10T13:07:53;22.10;62.60
26821;DHT22;37186;51.394;5.454;2022-07-10T13:11:05;22.10;62.30
26821;DHT22;37186;51.394;5.454;2022-07-10T13:14:07;22.20;62.50
26821;DHT22;37186;51.394;5.454;2022-07-10T13:17:07;22.20;63.30
26821;DHT22;37186;51.394;5.454;2022-07-10T13:20:09;22.30;62.50
26821;DHT22;37186;51.394;5.454;2022-07-10T13:23:10;22.30;62.50
26821;DHT22;37186;51.394;5.454;2022-07-10T13:26:10;22.40;62.50
26821;DHT22;37186;51.394;5.454;2022-07-10T13:29:11;22.40;62.60
26821;DHT22;37186;51.394;5.454;2022-07-10T13:32:11;22.50;62.50
26821;DHT22;37186;51.394;5.454;2022-07-10T13:35:12;22.60;62.50
26821;DHT22;37186;51.394;5.454;2022-07-10T13:38:13;22.60;62.50
26821;DHT22;37186;51.394;5.454;2022-07-10T13:41:13;22.70;62.60
26821;DHT22;37186;51.394;5.454;2022-07-10T13:44:14;22.70;62.60
26821;DHT22;37186;51.394;5.454;2022-07-10T13:47:14;22.70;62.50
26821;DHT22;37186;51.394;5.454;2022-07-10T13:50:15;22.80;62.60
26821;DHT22;37186;51.394;5.454;2022-07-10T13:53:16;22.90;62.60
26821;DHT22;37186;51.394;5.454;2022-07-10T13:56:17;22.90;62.20
26821;DHT22;37186;51.394;5.454;2022-07-10T13:59:18;23.00;62.20
26821;DHT22;37186;51.394;5.454;2022-07-10T14:02:18;23.10;62.40
26821;DHT22;37186;51.394;5.454;2022-07-10T14:05:19;23.10;62.50
26821;DHT22;37186;51.394;5.454;2022-07-10T14:08:20;23.20;62.50
26821;DHT22;37186;51.394;5.454;2022-07-10T14:11:21;23.20;62.40
26821;DHT22;37186;51.394;5.454;2022-07-10T14:14:21;23.30;62.20
26821;DHT22;37186;51.394;5.454;2022-07-10T14:17:22;23.30;62.00
26821;DHT22;37186;51.394;5.454;2022-07-10T14:20:24;23.40;62.00
26821;DHT22;37186;51.394;5.454;2022-07-10T14:23:25;23.40;61.90
26821;DHT22;37186;51.394;5.454;2022-07-10T14:26:25;23.40;61.70
26821;DHT22;37186;51.394;5.454;2022-07-10T14:29:26;23.50;61.90
26821;DHT22;37186;51.394;5.454;2022-07-10T14:32:26;23.50;61.80
26821;DHT22;37186;51.394;5.454;2022-07-10T14:35:27;23.50;61.80
26821;DHT22;37186;51.394;5.454;2022-07-10T14:38:27;23.60;61.70
26821;DHT22;37186;51.394;5.454;2022-07-10T14:41:28;23.60;61.70
26821;DHT22;37186;51.394;5.454;2022-07-10T14:44:29;23.60;61.70
26821;DHT22;37186;51.394;5.454;2022-07-10T14:47:29;23.70;61.90
26821;DHT22;37186;51.394;5.454;2022-07-10T14:50:30;23.70;61.00
26821;DHT22;37186;51.394;5.454;2022-07-10T14:53:31;23.70;61.40
26821;DHT22;37186;51.394;5.454;2022-07-10T14:56:35;23.80;61.10
26821;DHT22;37186;51.394;5.454;2022-07-10T14:59:35;23.80;61.00
26821;DHT22;37186;51.394;5.454;2022-07-10T15:02:36;23.80;60.80
26821;DHT22;37186;51.394;5.454;2022-07-10T15:05:36;23.80;60.80
26821;DHT22;37186;51.394;5.454;2022-07-10T15:08:37;23.80;60.80
26821;DHT22;37186;51.394;5.454;2022-07-10T15:11:37;23.90;60.60
26821;DHT22;37186;51.394;5.454;2022-07-10T15:14:39;23.90;60.40
26821;DHT22;37186;51.394;5.454;2022-07-10T15:17:39;23.90;60.30
26821;DHT22;37186;51.394;5.454;2022-07-10T15:20:40;23.90;60.60
26821;DHT22;37186;51.394;5.454;2022-07-10T15:23:40;24.00;60.60
26821;DHT22;37186;51.394;5.454;2022-07-10T15:26:41;24.00;60.70
26821;DHT22;37186;51.394;5.454;2022-07-10T15:29:42;24.00;60.70
26821;DHT22;37186;51.394;5.454;2022-07-10T15:32:42;24.10;60.30
26821;DHT22;37186;51.394;5.454;2022-07-10T15:35:43;24.10;60.10
26821;DHT22;37186;51.394;5.454;2022-07-10T15:38:43;24.10;60.00
26821;DHT22;37186;51.394;5.454;2022-07-10T15:41:44;24.10;60.00
26821;DHT22;37186;51.394;5.454;2022-07-10T15:44:46;24.10;60.00
26821;DHT22;37186;51.394;5.454;2022-07-10T15:47:47;24.10;60.10
26821;DHT22;37186;51.394;5.454;2022-07-10T15:50:47;24.10;60.10
26821;DHT22;37186;51.394;5.454;2022-07-10T15:53:48;24.10;60.10
26821;DHT22;37186;51.394;5.454;2022-07-10T15:56:48;24.10;59.80
26821;DHT22;37186;51.394;5.454;2022-07-10T15:59:49;24.20;59.90
26821;DHT22;37186;51.394;5.454;2022-07-10T16:02:50;24.20;59.90
26821;DHT22;37186;51.394;5.454;2022-07-10T16:05:51;24.20;59.90
26821;DHT22;37186;51.394;5.454;2022-07-10T16:08:52;24.20;59.40
26821;DHT22;37186;51.394;5.454;2022-07-10T16:11:52;24.20;59.00
26821;DHT22;37186;51.394;5.454;2022-07-10T16:14:53;24.20;59.40
26821;DHT22;37186;51.394;5.454;2022-07-10T16:17:55;24.20;59.40
26821;DHT22;37186;51.394;5.454;2022-07-10T16:20:55;24.20;59.40
26821;DHT22;37186;51.394;5.454;2022-07-10T16:23:58;24.20;59.40
26821;DHT22;37186;51.394;5.454;2022-07-10T16:26:59;24.20;59.50
26821;DHT22;37186;51.394;5.454;2022-07-10T16:29:59;24.20;59.00
26821;DHT22;37186;51.394;5.454;2022-07-10T16:33:00;24.20;59.10
26821;DHT22;37186;51.394;5.454;2022-07-10T16:36:01;24.20;59.00
26821;DHT22;37186;51.394;5.454;2022-07-10T16:39:04;24.20;59.30
26821;DHT22;37186;51.394;5.454;2022-07-10T16:42:04;24.30;59.50
26821;DHT22;37186;51.394;5.454;2022-07-10T16:45:05;24.30;59.90
26821;DHT22;37186;51.394;5.454;2022-07-10T16:48:08;24.40;59.90
26821;DHT22;37186;51.394;5.454;2022-07-10T16:51:10;24.50;59.80
26821;DHT22;37186;51.394;5.454;2022-07-10T16:54:10;24.50;59.60
26821;DHT22;37186;51.394;5.454;2022-07-10T16:57:11;24.60;59.90
26821;DHT22;37186;51.394;5.454;2022-07-10T17:00:12;24.70;60.10
26821;DHT22;37186;51.394;5.454;2022-07-10T17:03:13;24.80;60.20
26821;DHT22;37186;51.394;5.454;2022-07-10T17:06:14;24.90;60.40
26821;DHT22;37186;51.394;5.454;2022-07-10T17:09:15;24.90;59.50
26821;DHT22;37186;51.394;5.454;2022-07-10T17:12:15;24.90;59.50
26821;DHT22;37186;51.394;5.454;2022-07-10T17:15:16;25.00;59.00
26821;DHT22;37186;51.394;5.454;2022-07-10T17:18:16;25.00;58.90
26821;DHT22;37186;51.394;5.454;2022-07-10T17:21:17;25.00;58.90
26821;DHT22;37186;51.394;5.454;2022-07-10T17:24:19;25.10;59.50
26821;DHT22;37186;51.394;5.454;2022-07-10T17:27:20;25.20;60.30
26821;DHT22;37186;51.394;5.454;2022-07-10T17:30:20;25.30;60.30
26821;DHT22;37186;51.394;5.454;2022-07-10T17:33:22;25.40;60.80
26821;DHT22;37186;51.394;5.454;2022-07-10T17:36:23;25.60;60.90
26821;DHT22;37186;51.394;5.454;2022-07-10T17:39:23;25.70;61.90
26821;DHT22;37186;51.394;5.454;2022-07-10T17:42:24;25.90;63.00
26821;DHT22;37186;51.394;5.454;2022-07-10T17:45:24;26.10;62.20
26821;DHT22;37186;51.394;5.454;2022-07-10T17:48:25;26.30;61.70
26821;DHT22;37186;51.394;5.454;2022-07-10T17:51:27;26.40;61.20
26821;DHT22;37186;51.394;5.454;2022-07-10T17:54:28;26.60;60.90
26821;DHT22;37186;51.394;5.454;2022-07-10T17:57:29;26.70;60.40
26821;DHT22;37186;51.394;5.454;2022-07-10T18:00:30;26.70;59.70
26821;DHT22;37186;51.394;5.454;2022-07-10T18:03:30;26.90;60.30
26821;DHT22;37186;51.394;5.454;2022-07-10T18:06:31;27.00;60.50
26821;DHT22;37186;51.394;5.454;2022-07-10T18:09:31;27.20;61.10
26821;DHT22;37186;51.394;5.454;2022-07-10T18:12:32;27.30;59.40
26821;DHT22;37186;51.394;5.454;2022-07-10T18:15:32;27.30;59.50
26821;DHT22;37186;51.394;5.454;2022-07-10T18:18:46;27.40;58.20
26821;DHT22;37186;51.394;5.454;2022-07-10T18:21:47;27.40;58.00
26821;DHT22;37186;51.394;5.454;2022-07-10T18:24:48;27.40;58.50
26821;DHT22;37186;51.394;5.454;2022-07-10T18:27:48;27.40;57.00
26821;DHT22;37186;51.394;5.454;2022-07-10T18:30:49;27.30;57.90
26821;DHT22;37186;51.394;5.454;2022-07-10T18:33:50;27.20;57.60
26821;DHT22;37186;51.394;5.454;2022-07-10T18:37:10;27.20;57.40
26821;DHT22;37186;51.394;5.454;2022-07-10T18:40:12;27.10;57.40
26821;DHT22;37186;51.394;5.454;2022-07-10T18:43:12;27.00;56.20
26821;DHT22;37186;51.394;5.454;2022-07-10T18:46:13;26.90;57.50
26821;DHT22;37186;51.394;5.454;2022-07-10T18:49:14;26.80;56.80
26821;DHT22;37186;51.394;5.454;2022-07-10T18:52:14;26.70;56.80
26821;DHT22;37186;51.394;5.454;2022-07-10T18:55:15;26.60;56.20
26821;DHT22;37186;51.394;5.454;2022-07-10T18:58:15;26.50;56.60
26821;DHT22;37186;51.394;5.454;2022-07-10T19:01:16;26.40;57.30
26821;DHT22;37186;51.394;5.454;2022-07-10T19:04:18;26.30;56.70
26821;DHT22;37186;51.394;5.454;2022-07-10T19:07:18;26.30;56.80
26821;DHT22;37186;51.394;5.454;2022-07-10T19:10:19;26.20;56.70
26821;DHT22;37186;51.394;5.454;2022-07-10T19:13:20;26.10;56.70
26821;DHT22;37186;51.394;5.454;2022-07-10T19:16:21;26.00;56.50
26821;DHT22;37186;51.394;5.454;2022-07-10T19:19:22;25.90;56.80
26821;DHT22;37186;51.394;5.454;2022-07-10T19:22:22;25.80;56.70